KTPA/TPA METAR and TAF weather

Enter ICAO airport designator
Station Type Date Time Source
KTPA METAR 2020/09/20 00:53 UTC NOAA

KTPA 200053Z 03009G17KT 10SM SCT025 27/22 A2995 RMK AO2 SLP140 T02720217 $


Station Type Date Time Source
KTPA Decoded METAR 2020/09/20 00:53 UTC NOAA

TAMPA INTERNATIONAL AIRPORT , FL, United States (KTPA) 27-58N 082-32W 11M
Sep 19, 2020 - 08:53 PM EDT / 2020.09.20 0053 UTC
Wind: from the NNE (030 degrees) at 10 MPH (9 KT) gusting to 20 MPH (17 KT):0
Visibility: 10 mile(s):0
Sky conditions: partly cloudy
Temperature: 81.0 F (27.2 C)
Dew Point: 71.1 F (21.7 C)
Relative Humidity: 71%
Pressure (altimeter): 29.95 in. Hg (1014 hPa)
ob: KTPA 200053Z 03009G17KT 10SM SCT025 27/22 A2995 RMK AO2 SLP140 T02720217
cycle: 1

Station Type Date Time Source
KTPA TAF 2020/09/19 22:58 UTC NOAA

TAF
AMD KTPA 192158Z 1922/2024 35010KT P6SM VCTS SCT040CB BKN250
FM200100 02010KT P6SM SCT045 BKN250
FM200800 03008KT P6SM BKN020 BKN050
FM201400 04010KT P6SM VCSH BKN025 BKN060
FM201800 06013G20KT P6SM VCTS BKN025CB BKN080

Example: see airport list